sensor_id;sensor_type;location;lat;lon;timestamp;temperature;humidity
20041;DHT22;10181;48.072;9.884;2023-06-14T00:01:02;10.20;99.90
20041;DHT22;10181;48.072;9.884;2023-06-14T00:03:31;10.30;99.90
20041;DHT22;10181;48.072;9.884;2023-06-14T00:05:58;10.30;99.90
20041;DHT22;10181;48.072;9.884;2023-06-14T00:08:23;10.20;99.90
20041;DHT22;10181;48.072;9.884;2023-06-14T00:10:51;10.10;99.90
20041;DHT22;10181;48.072;9.884;2023-06-14T00:13:16;10.00;99.90
20041;DHT22;10181;48.072;9.884;2023-06-14T00:15:42;9.90;99.90
20041;DHT22;10181;48.072;9.884;2023-06-14T00:18:08;9.80;99.90
20041;DHT22;10181;48.072;9.884;2023-06-14T00:20:35;9.60;99.90
20041;DHT22;10181;48.072;9.884;2023-06-14T00:23:01;9.40;99.90
20041;DHT22;10181;48.072;9.884;2023-06-14T00:25:27;9.30;99.90
20041;DHT22;10181;48.072;9.884;2023-06-14T00:27:54;9.20;99.90
20041;DHT22;10181;48.072;9.884;2023-06-14T00:30:20;9.10;99.90
20041;DHT22;10181;48.072;9.884;2023-06-14T00:32:47;9.00;99.90
20041;DHT22;10181;48.072;9.884;2023-06-14T00:35:13;9.00;99.90
20041;DHT22;10181;48.072;9.884;2023-06-14T00:37:39;8.90;99.90
20041;DHT22;10181;48.072;9.884;2023-06-14T00:40:05;8.90;99.90
20041;DHT22;10181;48.072;9.884;2023-06-14T00:42:31;8.80;99.90
20041;DHT22;10181;48.072;9.884;2023-06-14T00:44:57;8.80;99.90
20041;DHT22;10181;48.072;9.884;2023-06-14T00:47:23;8.70;99.90
20041;DHT22;10181;48.072;9.884;2023-06-14T00:49:50;8.50;99.90
20041;DHT22;10181;48.072;9.884;2023-06-14T00:52:17;8.40;99.90
20041;DHT22;10181;48.072;9.884;2023-06-14T00:54:43;8.30;99.90
20041;DHT22;10181;48.072;9.884;2023-06-14T00:57:09;8.20;99.90
20041;DHT22;10181;48.072;9.884;2023-06-14T00:59:48;8.20;99.90
20041;DHT22;10181;48.072;9.884;2023-06-14T01:02:14;8.20;99.90
20041;DHT22;10181;48.072;9.884;2023-06-14T01:04:46;8.20;99.90
20041;DHT22;10181;48.072;9.884;2023-06-14T01:10:12;8.40;99.90
20041;DHT22;10181;48.072;9.884;2023-06-14T01:12:51;8.40;99.90
20041;DHT22;10181;48.072;9.884;2023-06-14T01:15:19;8.40;99.90
20041;DHT22;10181;48.072;9.884;2023-06-14T01:17:46;8.30;99.90
20041;DHT22;10181;48.072;9.884;2023-06-14T01:20:17;8.20;99.90
20041;DHT22;10181;48.072;9.884;2023-06-14T01:22:52;8.10;99.90
20041;DHT22;10181;48.072;9.884;2023-06-14T01:25:19;8.10;99.90
20041;DHT22;10181;48.072;9.884;2023-06-14T01:27:48;8.10;99.90
20041;DHT22;10181;48.072;9.884;2023-06-14T01:30:15;8.20;99.90
20041;DHT22;10181;48.072;9.884;2023-06-14T01:32:41;8.20;99.90
20041;DHT22;10181;48.072;9.884;2023-06-14T01:35:07;8.30;99.90
20041;DHT22;10181;48.072;9.884;2023-06-14T01:37:33;8.40;99.90
20041;DHT22;10181;48.072;9.884;2023-06-14T01:39:59;8.50;99.90
20041;DHT22;10181;48.072;9.884;2023-06-14T01:42:25;8.60;99.90
20041;DHT22;10181;48.072;9.884;2023-06-14T01:44:53;8.70;99.90
20041;DHT22;10181;48.072;9.884;2023-06-14T01:47:20;8.70;99.90
20041;DHT22;10181;48.072;9.884;2023-06-14T01:49:46;8.60;99.90
20041;DHT22;10181;48.072;9.884;2023-06-14T01:52:12;8.60;99.90
20041;DHT22;10181;48.072;9.884;2023-06-14T01:54:38;8.50;99.90
20041;DHT22;10181;48.072;9.884;2023-06-14T01:57:08;8.30;99.90
20041;DHT22;10181;48.072;9.884;2023-06-14T01:59:34;8.30;99.90
20041;DHT22;10181;48.072;9.884;2023-06-14T02:02:01;8.20;99.90
20041;DHT22;10181;48.072;9.884;2023-06-14T02:04:27;8.20;99.90
20041;DHT22;10181;48.072;9.884;2023-06-14T02:06:53;8.10;99.90
20041;DHT22;10181;48.072;9.884;2023-06-14T02:09:18;8.10;99.90
20041;DHT22;10181;48.072;9.884;2023-06-14T02:11:44;8.10;99.90
20041;DHT22;10181;48.072;9.884;2023-06-14T02:14:10;8.00;99.90
20041;DHT22;10181;48.072;9.884;2023-06-14T02:16:37;7.90;99.90
20041;DHT22;10181;48.072;9.884;2023-06-14T02:19:04;7.70;99.90
20041;DHT22;10181;48.072;9.884;2023-06-14T02:21:30;7.70;99.90
20041;DHT22;10181;48.072;9.884;2023-06-14T02:23:56;7.60;99.90
20041;DHT22;10181;48.072;9.884;2023-06-14T02:26:21;7.50;99.90
20041;DHT22;10181;48.072;9.884;2023-06-14T02:28:48;7.40;99.90
20041;DHT22;10181;48.072;9.884;2023-06-14T02:31:14;7.40;99.90
20041;DHT22;10181;48.072;9.884;2023-06-14T02:33:40;7.40;99.90
20041;DHT22;10181;48.072;9.884;2023-06-14T02:36:06;7.30;99.90
20041;DHT22;10181;48.072;9.884;2023-06-14T02:38:31;7.30;99.90
20041;DHT22;10181;48.072;9.884;2023-06-14T02:40:57;7.20;99.90
20041;DHT22;10181;48.072;9.884;2023-06-14T02:43:24;7.20;99.90
20041;DHT22;10181;48.072;9.884;2023-06-14T02:45:50;7.10;99.90
20041;DHT22;10181;48.072;9.884;2023-06-14T02:48:16;7.00;99.90
20041;DHT22;10181;48.072;9.884;2023-06-14T02:50:41;6.90;99.90
20041;DHT22;10181;48.072;9.884;2023-06-14T02:53:07;6.90;99.90
20041;DHT22;10181;48.072;9.884;2023-06-14T02:55:33;6.80;99.90
20041;DHT22;10181;48.072;9.884;2023-06-14T02:57:59;6.70;99.90
20041;DHT22;10181;48.072;9.884;2023-06-14T03:00:24;6.70;99.90
20041;DHT22;10181;48.072;9.884;2023-06-14T03:02:50;6.70;99.90
20041;DHT22;10181;48.072;9.884;2023-06-14T03:05:16;6.80;99.90
20041;DHT22;10181;48.072;9.884;2023-06-14T03:07:46;6.80;99.90
20041;DHT22;10181;48.072;9.884;2023-06-14T03:10:12;6.90;99.90
20041;DHT22;10181;48.072;9.884;2023-06-14T03:12:39;6.90;99.90
20041;DHT22;10181;48.072;9.884;2023-06-14T03:15:05;7.00;99.90
20041;DHT22;10181;48.072;9.884;2023-06-14T03:17:31;7.00;99.90
20041;DHT22;10181;48.072;9.884;2023-06-14T03:20:00;7.00;99.90
20041;DHT22;10181;48.072;9.884;2023-06-14T03:22:25;6.90;99.90
20041;DHT22;10181;48.072;9.884;2023-06-14T03:24:52;6.90;99.90
20041;DHT22;10181;48.072;9.884;2023-06-14T03:27:19;6.90;99.90
20041;DHT22;10181;48.072;9.884;2023-06-14T03:29:45;6.80;99.90
20041;DHT22;10181;48.072;9.884;2023-06-14T03:32:11;6.80;99.90
20041;DHT22;10181;48.072;9.884;2023-06-14T03:34:36;6.70;99.90
20041;DHT22;10181;48.072;9.884;2023-06-14T03:37:04;6.70;99.90
20041;DHT22;10181;48.072;9.884;2023-06-14T03:39:30;6.70;99.90
20041;DHT22;10181;48.072;9.884;2023-06-14T03:41:55;6.70;99.90
20041;DHT22;10181;48.072;9.884;2023-06-14T03:44:21;6.60;99.90
20041;DHT22;10181;48.072;9.884;2023-06-14T03:46:47;6.70;99.90
20041;DHT22;10181;48.072;9.884;2023-06-14T03:49:13;6.60;99.90
20041;DHT22;10181;48.072;9.884;2023-06-14T03:51:39;6.60;99.90
20041;DHT22;10181;48.072;9.884;2023-06-14T03:54:05;6.50;99.90
20041;DHT22;10181;48.072;9.884;2023-06-14T03:56:31;6.40;99.90
20041;DHT22;10181;48.072;9.884;2023-06-14T03:58:57;6.40;99.90
20041;DHT22;10181;48.072;9.884;2023-06-14T04:01:22;6.30;99.90
20041;DHT22;10181;48.072;9.884;2023-06-14T04:03:52;6.40;99.90
20041;DHT22;10181;48.072;9.884;2023-06-14T04:06:18;6.40;99.90
20041;DHT22;10181;48.072;9.884;2023-06-14T04:08:44;6.50;99.90
20041;DHT22;10181;48.072;9.884;2023-06-14T04:11:11;6.60;99.90
20041;DHT22;10181;48.072;9.884;2023-06-14T04:13:36;6.70;99.90
20041;DHT22;10181;48.072;9.884;2023-06-14T04:16:03;6.70;99.90
20041;DHT22;10181;48.072;9.884;2023-06-14T04:18:29;6.90;99.90
20041;DHT22;10181;48.072;9.884;2023-06-14T04:20:54;7.00;99.90
20041;DHT22;10181;48.072;9.884;2023-06-14T04:23:21;7.00;99.90
20041;DHT22;10181;48.072;9.884;2023-06-14T04:25:47;7.10;99.90
20041;DHT22;10181;48.072;9.884;2023-06-14T04:28:15;7.20;99.90
20041;DHT22;10181;48.072;9.884;2023-06-14T04:30:43;7.30;99.90
20041;DHT22;10181;48.072;9.884;2023-06-14T04:33:10;7.40;99.90
20041;DHT22;10181;48.072;9.884;2023-06-14T04:35:36;7.50;99.90
20041;DHT22;10181;48.072;9.884;2023-06-14T04:38:03;7.60;99.90
20041;DHT22;10181;48.072;9.884;2023-06-14T04:40:35;7.70;99.90
20041;DHT22;10181;48.072;9.884;2023-06-14T04:43:02;7.90;99.90
20041;DHT22;10181;48.072;9.884;2023-06-14T04:45:31;8.00;99.90
20041;DHT22;10181;48.072;9.884;2023-06-14T04:47:59;8.20;99.90
20041;DHT22;10181;48.072;9.884;2023-06-14T04:50:25;8.30;99.90
20041;DHT22;10181;48.072;9.884;2023-06-14T04:52:50;8.40;99.90
20041;DHT22;10181;48.072;9.884;2023-06-14T04:55:17;8.60;99.90
20041;DHT22;10181;48.072;9.884;2023-06-14T04:57:44;8.70;99.90
20041;DHT22;10181;48.072;9.884;2023-06-14T05:00:10;8.90;99.90
20041;DHT22;10181;48.072;9.884;2023-06-14T05:02:37;9.00;99.90
20041;DHT22;10181;48.072;9.884;2023-06-14T05:05:03;9.10;99.90
20041;DHT22;10181;48.072;9.884;2023-06-14T05:07:32;9.30;99.90
20041;DHT22;10181;48.072;9.884;2023-06-14T05:09:59;9.40;99.90
20041;DHT22;10181;48.072;9.884;2023-06-14T05:12:25;9.70;99.90
20041;DHT22;10181;48.072;9.884;2023-06-14T05:14:50;10.10;99.90
20041;DHT22;10181;48.072;9.884;2023-06-14T05:17:16;10.40;99.90
20041;DHT22;10181;48.072;9.884;2023-06-14T05:19:42;10.80;99.90
20041;DHT22;10181;48.072;9.884;2023-06-14T05:22:08;11.10;99.90
20041;DHT22;10181;48.072;9.884;2023-06-14T05:24:33;11.50;99.90
20041;DHT22;10181;48.072;9.884;2023-06-14T05:27:00;11.80;99.90
20041;DHT22;10181;48.072;9.884;2023-06-14T05:29:26;12.00;99.90
20041;DHT22;10181;48.072;9.884;2023-06-14T05:31:52;12.20;99.90
20041;DHT22;10181;48.072;9.884;2023-06-14T05:34:20;12.40;99.90
20041;DHT22;10181;48.072;9.884;2023-06-14T05:36:45;12.60;99.90
20041;DHT22;10181;48.072;9.884;2023-06-14T05:39:12;12.80;99.90
20041;DHT22;10181;48.072;9.884;2023-06-14T05:41:37;12.90;99.90
20041;DHT22;10181;48.072;9.884;2023-06-14T05:44:03;13.00;99.90
20041;DHT22;10181;48.072;9.884;2023-06-14T05:46:28;13.10;99.90
20041;DHT22;10181;48.072;9.884;2023-06-14T05:48:55;13.30;99.90
20041;DHT22;10181;48.072;9.884;2023-06-14T05:51:21;13.50;99.90
20041;DHT22;10181;48.072;9.884;2023-06-14T05:53:47;13.60;99.90
20041;DHT22;10181;48.072;9.884;2023-06-14T05:56:14;13.80;99.90
20041;DHT22;10181;48.072;9.884;2023-06-14T05:58:40;13.90;99.90
20041;DHT22;10181;48.072;9.884;2023-06-14T06:01:06;14.10;99.90
20041;DHT22;10181;48.072;9.884;2023-06-14T06:03:32;14.30;99.90
20041;DHT22;10181;48.072;9.884;2023-06-14T06:05:59;14.50;99.90
20041;DHT22;10181;48.072;9.884;2023-06-14T06:08:26;14.60;99.90
20041;DHT22;10181;48.072;9.884;2023-06-14T06:10:52;14.70;99.90
20041;DHT22;10181;48.072;9.884;2023-06-14T06:13:18;14.80;99.90
20041;DHT22;10181;48.072;9.884;2023-06-14T06:15:44;14.90;99.90
20041;DHT22;10181;48.072;9.884;2023-06-14T06:18:09;14.90;99.90
20041;DHT22;10181;48.072;9.884;2023-06-14T06:20:35;15.00;99.90
20041;DHT22;10181;48.072;9.884;2023-06-14T06:23:01;15.10;99.90
20041;DHT22;10181;48.072;9.884;2023-06-14T06:25:27;15.20;99.90
20041;DHT22;10181;48.072;9.884;2023-06-14T06:27:54;15.30;99.90
20041;DHT22;10181;48.072;9.884;2023-06-14T06:30:21;15.40;99.90
20041;DHT22;10181;48.072;9.884;2023-06-14T06:32:47;15.50;99.90
20041;DHT22;10181;48.072;9.884;2023-06-14T06:35:13;15.60;99.90
20041;DHT22;10181;48.072;9.884;2023-06-14T06:37:40;15.70;99.90
20041;DHT22;10181;48.072;9.884;2023-06-14T06:40:06;15.80;99.90
20041;DHT22;10181;48.072;9.884;2023-06-14T06:42:32;15.90;99.90
20041;DHT22;10181;48.072;9.884;2023-06-14T06:44:58;16.00;99.90
20041;DHT22;10181;48.072;9.884;2023-06-14T06:47:24;16.10;99.90
20041;DHT22;10181;48.072;9.884;2023-06-14T06:49:50;16.20;99.90
20041;DHT22;10181;48.072;9.884;2023-06-14T06:52:16;16.30;99.90
20041;DHT22;10181;48.072;9.884;2023-06-14T06:54:42;16.40;99.90
20041;DHT22;10181;48.072;9.884;2023-06-14T06:57:07;16.50;99.90
20041;DHT22;10181;48.072;9.884;2023-06-14T06:59:34;16.60;99.90
20041;DHT22;10181;48.072;9.884;2023-06-14T07:01:59;16.70;99.90
20041;DHT22;10181;48.072;9.884;2023-06-14T07:04:25;16.80;99.90
20041;DHT22;10181;48.072;9.884;2023-06-14T07:06:51;16.90;99.90
20041;DHT22;10181;48.072;9.884;2023-06-14T07:09:16;17.00;99.90
20041;DHT22;10181;48.072;9.884;2023-06-14T07:11:46;17.10;99.90
20041;DHT22;10181;48.072;9.884;2023-06-14T07:14:12;17.20;99.90
20041;DHT22;10181;48.072;9.884;2023-06-14T07:16:38;17.10;99.90
20041;DHT22;10181;48.072;9.884;2023-06-14T07:19:04;17.20;99.90
20041;DHT22;10181;48.072;9.884;2023-06-14T07:21:29;17.30;99.90
20041;DHT22;10181;48.072;9.884;2023-06-14T07:23:56;17.40;99.20
20041;DHT22;10181;48.072;9.884;2023-06-14T07:26:22;17.40;99.00
20041;DHT22;10181;48.072;9.884;2023-06-14T07:28:48;17.50;98.80
20041;DHT22;10181;48.072;9.884;2023-06-14T07:31:17;17.50;98.00
20041;DHT22;10181;48.072;9.884;2023-06-14T07:33:45;17.50;98.30
20041;DHT22;10181;48.072;9.884;2023-06-14T07:36:10;17.70;98.10
20041;DHT22;10181;48.072;9.884;2023-06-14T07:38:36;17.80;97.90
20041;DHT22;10181;48.072;9.884;2023-06-14T07:41:02;17.90;97.80
20041;DHT22;10181;48.072;9.884;2023-06-14T07:43:27;18.00;97.80
20041;DHT22;10181;48.072;9.884;2023-06-14T07:45:53;18.10;97.20
20041;DHT22;10181;48.072;9.884;2023-06-14T07:48:19;18.20;96.60
20041;DHT22;10181;48.072;9.884;2023-06-14T07:50:45;18.30;96.30
20041;DHT22;10181;48.072;9.884;2023-06-14T07:53:10;18.40;96.00
20041;DHT22;10181;48.072;9.884;2023-06-14T07:55:36;18.50;96.00
20041;DHT22;10181;48.072;9.884;2023-06-14T07:58:06;18.60;95.60
20041;DHT22;10181;48.072;9.884;2023-06-14T08:00:32;18.70;94.70
20041;DHT22;10181;48.072;9.884;2023-06-14T08:02:58;18.80;94.20
20041;DHT22;10181;48.072;9.884;2023-06-14T08:05:27;18.80;93.90
20041;DHT22;10181;48.072;9.884;2023-06-14T08:07:53;18.80;94.50
20041;DHT22;10181;48.072;9.884;2023-06-14T08:10:19;18.90;93.10
20041;DHT22;10181;48.072;9.884;2023-06-14T08:12:45;19.00;93.20
20041;DHT22;10181;48.072;9.884;2023-06-14T08:15:11;19.00;93.00
20041;DHT22;10181;48.072;9.884;2023-06-14T08:17:36;19.10;92.80
20041;DHT22;10181;48.072;9.884;2023-06-14T08:20:03;19.20;92.30
20041;DHT22;10181;48.072;9.884;2023-06-14T08:22:32;19.20;92.50
20041;DHT22;10181;48.072;9.884;2023-06-14T08:25:00;19.30;91.70
20041;DHT22;10181;48.072;9.884;2023-06-14T08:27:26;19.30;91.00
20041;DHT22;10181;48.072;9.884;2023-06-14T08:29:52;19.30;91.20
20041;DHT22;10181;48.072;9.884;2023-06-14T08:32:17;19.40;91.00
20041;DHT22;10181;48.072;9.884;2023-06-14T08:34:43;19.50;90.40
20041;DHT22;10181;48.072;9.884;2023-06-14T08:37:09;19.60;90.70
20041;DHT22;10181;48.072;9.884;2023-06-14T08:39:34;19.70;89.30
20041;DHT22;10181;48.072;9.884;2023-06-14T08:42:02;19.70;89.90
20041;DHT22;10181;48.072;9.884;2023-06-14T08:44:29;19.80;88.10
20041;DHT22;10181;48.072;9.884;2023-06-14T08:46:59;19.90;88.50
20041;DHT22;10181;48.072;9.884;2023-06-14T08:49:26;20.00;88.60
20041;DHT22;10181;48.072;9.884;2023-06-14T08:51:58;20.10;86.60
20041;DHT22;10181;48.072;9.884;2023-06-14T08:54:28;20.20;86.10
20041;DHT22;10181;48.072;9.884;2023-06-14T08:56:59;20.30;84.70
20041;DHT22;10181;48.072;9.884;2023-06-14T08:59:28;20.20;83.60
20041;DHT22;10181;48.072;9.884;2023-06-14T09:01:54;20.20;85.30
20041;DHT22;10181;48.072;9.884;2023-06-14T09:04:21;20.20;83.30
20041;DHT22;10181;48.072;9.884;2023-06-14T09:06:47;20.20;85.00
20041;DHT22;10181;48.072;9.884;2023-06-14T09:09:19;20.30;84.40
20041;DHT22;10181;48.072;9.884;2023-06-14T09:11:46;20.40;84.00
20041;DHT22;10181;48.072;9.884;2023-06-14T09:14:11;20.50;85.70
20041;DHT22;10181;48.072;9.884;2023-06-14T09:16:37;20.60;85.90
20041;DHT22;10181;48.072;9.884;2023-06-14T09:19:03;20.60;83.50
20041;DHT22;10181;48.072;9.884;2023-06-14T09:21:34;20.60;87.10
20041;DHT22;10181;48.072;9.884;2023-06-14T09:24:01;20.70;87.50
20041;DHT22;10181;48.072;9.884;2023-06-14T09:26:28;20.70;88.40
20041;DHT22;10181;48.072;9.884;2023-06-14T09:28:54;20.80;87.10
20041;DHT22;10181;48.072;9.884;2023-06-14T09:31:21;20.90;88.00
20041;DHT22;10181;48.072;9.884;2023-06-14T09:33:49;21.00;85.20
20041;DHT22;10181;48.072;9.884;2023-06-14T09:36:24;21.10;83.90
20041;DHT22;10181;48.072;9.884;2023-06-14T09:39:02;21.10;83.80
20041;DHT22;10181;48.072;9.884;2023-06-14T09:41:39;21.00;77.20
20041;DHT22;10181;48.072;9.884;2023-06-14T09:44:07;21.00;87.70
20041;DHT22;10181;48.072;9.884;2023-06-14T09:46:33;21.00;88.70
20041;DHT22;10181;48.072;9.884;2023-06-14T09:49:00;21.00;87.50
20041;DHT22;10181;48.072;9.884;2023-06-14T09:51:27;21.10;88.10
20041;DHT22;10181;48.072;9.884;2023-06-14T09:53:58;21.20;92.10
20041;DHT22;10181;48.072;9.884;2023-06-14T09:56:35;21.30;91.60
20041;DHT22;10181;48.072;9.884;2023-06-14T09:59:04;21.30;85.30
20041;DHT22;10181;48.072;9.884;2023-06-14T10:01:31;21.30;88.10
20041;DHT22;10181;48.072;9.884;2023-06-14T10:04:03;21.30;92.00
20041;DHT22;10181;48.072;9.884;2023-06-14T10:06:29;21.30;92.10
20041;DHT22;10181;48.072;9.884;2023-06-14T10:08:59;21.40;91.00
20041;DHT22;10181;48.072;9.884;2023-06-14T10:11:26;21.40;88.50
20041;DHT22;10181;48.072;9.884;2023-06-14T10:13:55;21.40;92.60
20041;DHT22;10181;48.072;9.884;2023-06-14T10:16:31;21.40;90.80
20041;DHT22;10181;48.072;9.884;2023-06-14T10:22:18;21.40;90.10
20041;DHT22;10181;48.072;9.884;2023-06-14T10:24:46;21.40;86.40
20041;DHT22;10181;48.072;9.884;2023-06-14T10:27:14;21.50;85.20
20041;DHT22;10181;48.072;9.884;2023-06-14T10:32:18;21.60;79.00
20041;DHT22;10181;48.072;9.884;2023-06-14T10:34:44;21.60;83.20
20041;DHT22;10181;48.072;9.884;2023-06-14T10:37:12;21.60;77.90
20041;DHT22;10181;48.072;9.884;2023-06-14T10:39:42;21.50;79.20
20041;DHT22;10181;48.072;9.884;2023-06-14T10:42:09;21.50;81.70
20041;DHT22;10181;48.072;9.884;2023-06-14T10:44:55;21.60;84.50
20041;DHT22;10181;48.072;9.884;2023-06-14T10:47:32;21.60;85.80
20041;DHT22;10181;48.072;9.884;2023-06-14T10:50:10;21.70;86.90
20041;DHT22;10181;48.072;9.884;2023-06-14T10:52:43;21.70;80.40
20041;DHT22;10181;48.072;9.884;2023-06-14T10:55:10;21.80;78.20
20041;DHT22;10181;48.072;9.884;2023-06-14T10:57:39;21.70;82.50
20041;DHT22;10181;48.072;9.884;2023-06-14T11:00:06;21.70;75.80
20041;DHT22;10181;48.072;9.884;2023-06-14T11:05:30;21.70;78.40
20041;DHT22;10181;48.072;9.884;2023-06-14T11:10:37;21.70;81.30
20041;DHT22;10181;48.072;9.884;2023-06-14T11:13:03;21.80;74.80
20041;DHT22;10181;48.072;9.884;2023-06-14T11:15:30;21.90;80.40
20041;DHT22;10181;48.072;9.884;2023-06-14T11:17:57;21.80;79.10
20041;DHT22;10181;48.072;9.884;2023-06-14T11:20:27;21.90;81.60
20041;DHT22;10181;48.072;9.884;2023-06-14T11:22:53;22.00;83.50
20041;DHT22;10181;48.072;9.884;2023-06-14T11:25:19;22.10;82.50
20041;DHT22;10181;48.072;9.884;2023-06-14T11:27:46;22.20;80.50
20041;DHT22;10181;48.072;9.884;2023-06-14T11:30:13;22.30;78.50
20041;DHT22;10181;48.072;9.884;2023-06-14T11:32:39;22.30;84.40
20041;DHT22;10181;48.072;9.884;2023-06-14T11:35:05;22.30;85.30
20041;DHT22;10181;48.072;9.884;2023-06-14T11:37:31;22.40;85.60
20041;DHT22;10181;48.072;9.884;2023-06-14T11:39:59;22.40;76.20
20041;DHT22;10181;48.072;9.884;2023-06-14T11:42:27;22.50;76.20
20041;DHT22;10181;48.072;9.884;2023-06-14T11:44:53;22.50;79.00
20041;DHT22;10181;48.072;9.884;2023-06-14T11:47:19;22.60;75.90
20041;DHT22;10181;48.072;9.884;2023-06-14T11:49:46;22.50;70.60
20041;DHT22;10181;48.072;9.884;2023-06-14T11:52:11;22.60;79.30
20041;DHT22;10181;48.072;9.884;2023-06-14T11:54:37;22.60;74.40
20041;DHT22;10181;48.072;9.884;2023-06-14T11:57:04;22.60;76.30
20041;DHT22;10181;48.072;9.884;2023-06-14T11:59:30;22.70;78.10
20041;DHT22;10181;48.072;9.884;2023-06-14T12:01:56;22.70;75.50
20041;DHT22;10181;48.072;9.884;2023-06-14T12:04:28;22.60;71.00
20041;DHT22;10181;48.072;9.884;2023-06-14T12:06:54;22.70;69.80
20041;DHT22;10181;48.072;9.884;2023-06-14T12:09:21;22.60;73.20
20041;DHT22;10181;48.072;9.884;2023-06-14T12:12:00;22.60;70.30
20041;DHT22;10181;48.072;9.884;2023-06-14T12:14:30;22.60;77.90
20041;DHT22;10181;48.072;9.884;2023-06-14T12:17:04;22.60;80.10
20041;DHT22;10181;48.072;9.884;2023-06-14T12:19:31;22.50;81.00
20041;DHT22;10181;48.072;9.884;2023-06-14T12:21:59;22.40;81.90
20041;DHT22;10181;48.072;9.884;2023-06-14T12:24:29;22.30;73.60
20041;DHT22;10181;48.072;9.884;2023-06-14T12:26:57;22.30;70.70
20041;DHT22;10181;48.072;9.884;2023-06-14T12:29:25;22.40;75.00
20041;DHT22;10181;48.072;9.884;2023-06-14T12:31:51;22.50;79.60
20041;DHT22;10181;48.072;9.884;2023-06-14T12:34:19;22.50;70.00
20041;DHT22;10181;48.072;9.884;2023-06-14T12:36:45;22.50;70.80
20041;DHT22;10181;48.072;9.884;2023-06-14T12:39:12;22.60;70.50
20041;DHT22;10181;48.072;9.884;2023-06-14T12:41:37;22.60;71.20
20041;DHT22;10181;48.072;9.884;2023-06-14T12:44:03;22.50;70.70
20041;DHT22;10181;48.072;9.884;2023-06-14T12:46:32;22.50;75.40
20041;DHT22;10181;48.072;9.884;2023-06-14T12:48:58;22.60;70.00
20041;DHT22;10181;48.072;9.884;2023-06-14T12:51:23;22.60;75.90
20041;DHT22;10181;48.072;9.884;2023-06-14T12:53:50;22.70;73.80
20041;DHT22;10181;48.072;9.884;2023-06-14T12:56:16;22.80;77.60
20041;DHT22;10181;48.072;9.884;2023-06-14T12:58:42;22.80;71.20
20041;DHT22;10181;48.072;9.884;2023-06-14T13:01:08;22.70;72.60
20041;DHT22;10181;48.072;9.884;2023-06-14T13:03:33;22.60;72.30
20041;DHT22;10181;48.072;9.884;2023-06-14T13:06:00;22.60;69.20
20041;DHT22;10181;48.072;9.884;2023-06-14T13:08:26;22.60;73.40
20041;DHT22;10181;48.072;9.884;2023-06-14T13:10:53;22.70;73.70
20041;DHT22;10181;48.072;9.884;2023-06-14T13:13:18;22.90;71.40
20041;DHT22;10181;48.072;9.884;2023-06-14T13:15:44;23.00;75.00
20041;DHT22;10181;48.072;9.884;2023-06-14T13:18:11;23.10;76.20
20041;DHT22;10181;48.072;9.884;2023-06-14T13:20:39;23.10;77.00
20041;DHT22;10181;48.072;9.884;2023-06-14T13:23:05;23.10;77.60
20041;DHT22;10181;48.072;9.884;2023-06-14T13:25:33;23.10;72.00
20041;DHT22;10181;48.072;9.884;2023-06-14T13:27:59;23.10;73.70
20041;DHT22;10181;48.072;9.884;2023-06-14T13:30:25;23.20;71.60
20041;DHT22;10181;48.072;9.884;2023-06-14T13:32:50;23.30;69.20
20041;DHT22;10181;48.072;9.884;2023-06-14T13:35:18;23.20;73.10
20041;DHT22;10181;48.072;9.884;2023-06-14T13:37:43;23.10;68.50
20041;DHT22;10181;48.072;9.884;2023-06-14T13:40:10;23.10;77.40
20041;DHT22;10181;48.072;9.884;2023-06-14T13:42:36;23.10;70.80
20041;DHT22;10181;48.072;9.884;2023-06-14T13:45:03;23.10;71.80
20041;DHT22;10181;48.072;9.884;2023-06-14T13:47:29;23.20;77.00
20041;DHT22;10181;48.072;9.884;2023-06-14T13:49:55;23.30;72.60
20041;DHT22;10181;48.072;9.884;2023-06-14T13:52:21;23.30;74.60
20041;DHT22;10181;48.072;9.884;2023-06-14T13:54:47;23.20;75.80
20041;DHT22;10181;48.072;9.884;2023-06-14T13:57:13;23.10;77.00
20041;DHT22;10181;48.072;9.884;2023-06-14T13:59:39;22.90;75.90
20041;DHT22;10181;48.072;9.884;2023-06-14T14:02:06;22.80;77.60
20041;DHT22;10181;48.072;9.884;2023-06-14T14:04:31;22.60;78.10
20041;DHT22;10181;48.072;9.884;2023-06-14T14:06:57;22.50;76.40
20041;DHT22;10181;48.072;9.884;2023-06-14T14:09:23;22.40;78.80
20041;DHT22;10181;48.072;9.884;2023-06-14T14:11:49;22.20;75.80
20041;DHT22;10181;48.072;9.884;2023-06-14T14:14:15;22.20;77.70
20041;DHT22;10181;48.072;9.884;2023-06-14T14:16:41;22.30;78.30
20041;DHT22;10181;48.072;9.884;2023-06-14T14:19:07;22.20;78.00
20041;DHT22;10181;48.072;9.884;2023-06-14T14:21:33;22.20;78.10
20041;DHT22;10181;48.072;9.884;2023-06-14T14:23:58;22.20;76.90
20041;DHT22;10181;48.072;9.884;2023-06-14T14:26:24;22.30;77.90
20041;DHT22;10181;48.072;9.884;2023-06-14T14:28:51;22.20;78.10
20041;DHT22;10181;48.072;9.884;2023-06-14T14:31:17;22.20;78.00
20041;DHT22;10181;48.072;9.884;2023-06-14T14:33:42;22.10;79.00
20041;DHT22;10181;48.072;9.884;2023-06-14T14:36:09;22.00;72.60
20041;DHT22;10181;48.072;9.884;2023-06-14T14:38:34;22.00;72.60
20041;DHT22;10181;48.072;9.884;2023-06-14T14:41:00;22.20;72.10
20041;DHT22;10181;48.072;9.884;2023-06-14T14:43:26;22.40;71.20
20041;DHT22;10181;48.072;9.884;2023-06-14T14:45:52;22.60;71.60
20041;DHT22;10181;48.072;9.884;2023-06-14T14:48:18;22.70;73.20
20041;DHT22;10181;48.072;9.884;2023-06-14T14:50:43;22.90;70.90
20041;DHT22;10181;48.072;9.884;2023-06-14T14:53:09;23.10;70.40
20041;DHT22;10181;48.072;9.884;2023-06-14T14:55:35;23.30;70.00
20041;DHT22;10181;48.072;9.884;2023-06-14T14:58:02;23.30;70.70
20041;DHT22;10181;48.072;9.884;2023-06-14T15:00:28;23.30;70.70
20041;DHT22;10181;48.072;9.884;2023-06-14T15:02:54;23.30;74.60
20041;DHT22;10181;48.072;9.884;2023-06-14T15:05:20;23.40;72.40
20041;DHT22;10181;48.072;9.884;2023-06-14T15:07:46;23.50;75.00
20041;DHT22;10181;48.072;9.884;2023-06-14T15:10:12;23.60;76.20
20041;DHT22;10181;48.072;9.884;2023-06-14T15:12:37;23.50;75.60
20041;DHT22;10181;48.072;9.884;2023-06-14T15:15:03;23.50;75.40
20041;DHT22;10181;48.072;9.884;2023-06-14T15:17:29;23.40;76.40
20041;DHT22;10181;48.072;9.884;2023-06-14T15:19:55;23.40;77.50
20041;DHT22;10181;48.072;9.884;2023-06-14T15:22:21;23.30;67.80
20041;DHT22;10181;48.072;9.884;2023-06-14T15:24:46;23.20;71.50
20041;DHT22;10181;48.072;9.884;2023-06-14T15:27:12;23.30;71.30
20041;DHT22;10181;48.072;9.884;2023-06-14T15:29:41;23.30;72.90
20041;DHT22;10181;48.072;9.884;2023-06-14T15:32:08;23.30;75.00
20041;DHT22;10181;48.072;9.884;2023-06-14T15:34:34;23.10;77.90
20041;DHT22;10181;48.072;9.884;2023-06-14T15:37:00;23.00;77.50
20041;DHT22;10181;48.072;9.884;2023-06-14T15:39:28;22.80;77.20
20041;DHT22;10181;48.072;9.884;2023-06-14T15:41:55;22.90;70.60
20041;DHT22;10181;48.072;9.884;2023-06-14T15:44:21;23.10;72.50
20041;DHT22;10181;48.072;9.884;2023-06-14T15:46:47;23.10;70.50